createdAt,value
2018-05-29T00:03:50.503Z,20.7
2018-05-29T00:08:50.028Z,20.7
2018-05-29T00:13:50.457Z,21
2018-05-29T00:18:49.901Z,21
2018-05-29T00:23:50.261Z,21.2
2018-05-29T00:28:49.735Z,21.2
2018-05-29T00:33:50.306Z,21.4
2018-05-29T00:38:49.743Z,21.4
2018-05-29T00:43:50.231Z,21.4
2018-05-29T00:48:49.698Z,21.4
2018-05-29T00:53:50.157Z,21.4
2018-05-29T00:58:49.662Z,21.4
2018-05-29T01:03:50.129Z,21.4
2018-05-29T01:08:50.343Z,21.4
2018-05-29T01:13:49.846Z,21.3
2018-05-29T01:18:50.281Z,21.3
2018-05-29T01:23:49.802Z,21.2
2018-05-29T01:28:50.271Z,21.2
2018-05-29T01:33:49.814Z,21.1
2018-05-29T01:38:50.249Z,21.1
2018-05-29T01:43:49.926Z,20.9
2018-05-29T01:48:50.386Z,20.9
2018-05-29T01:53:49.853Z,20.8
2018-05-29T01:58:50.320Z,20.8
2018-05-29T02:03:49.834Z,20.7
2018-05-29T02:08:50.113Z,20.7
2018-05-29T02:13:50.682Z,20.6
2018-05-29T02:18:50.257Z,20.6
2018-05-29T02:23:49.750Z,20.4
2018-05-29T02:28:50.178Z,20.4
2018-05-29T02:33:50.593Z,20.4
2018-05-29T02:38:50.084Z,20.4
2018-05-29T02:43:50.550Z,20.3
2018-05-29T02:48:50.037Z,20.3
2018-05-29T02:53:50.475Z,20.3
2018-05-29T02:58:49.887Z,20.3
2018-05-29T03:03:50.502Z,20.3
2018-05-29T03:08:50.032Z,20.3
2018-05-29T03:13:50.570Z,20.3
2018-05-29T03:18:50.022Z,20.3
2018-05-29T03:23:50.485Z,20.2
2018-05-29T03:28:49.892Z,20.2
2018-05-29T03:33:50.487Z,20.1
2018-05-29T03:38:49.906Z,20.1
2018-05-29T03:43:50.309Z,20
2018-05-29T03:48:50.780Z,20
2018-05-29T03:53:50.290Z,19.8
2018-05-29T03:58:50.850Z,19.8
2018-05-29T04:03:50.482Z,19.7
2018-05-29T04:08:49.903Z,19.7
2018-05-29T04:13:50.333Z,19.5
2018-05-29T04:18:50.857Z,19.5
2018-05-29T04:23:50.283Z,19.3
2018-05-29T04:28:50.893Z,19.3
2018-05-29T04:33:50.567Z,19.3
2018-05-29T04:38:50.129Z,19.3
2018-05-29T04:43:50.578Z,19.2
2018-05-29T04:48:50.051Z,19.2
2018-05-29T04:53:50.567Z,19.2
2018-05-29T04:58:50.056Z,19.2
2018-05-29T05:03:50.654Z,19.2
2018-05-29T05:08:50.200Z,19.2
2018-05-29T05:13:50.651Z,19.4
2018-05-29T05:18:50.134Z,19.4
2018-05-29T05:23:50.641Z,19.6
2018-05-29T05:28:50.162Z,19.6
2018-05-29T05:33:50.770Z,19.8
2018-05-29T05:38:50.400Z,19.8
2018-05-29T05:43:50.913Z,20.1
2018-05-29T05:48:50.499Z,20.1
2018-05-29T05:53:50.929Z,20.5
2018-05-29T05:58:50.418Z,20.5
2018-05-29T06:03:50.391Z,20.8
2018-05-29T06:08:50.386Z,20.8
2018-05-29T06:13:50.881Z,21.3
2018-05-29T06:18:50.416Z,21.3
2018-05-29T06:23:50.917Z,22
2018-05-29T06:28:50.347Z,22
2018-05-29T06:33:50.864Z,22.7
2018-05-29T06:38:50.423Z,22.7
2018-05-29T06:43:50.880Z,23.3
2018-05-29T06:48:50.507Z,23.3
2018-05-29T06:53:50.986Z,23.9
2018-05-29T06:58:50.438Z,23.9
2018-05-29T07:03:51.011Z,24.5
2018-05-29T07:08:51.054Z,24.5
2018-05-29T07:13:50.561Z,25.1
2018-05-29T07:18:50.141Z,25.1
2018-05-29T07:23:50.688Z,25.4
2018-05-29T07:28:50.199Z,25.4
2018-05-29T07:33:50.751Z,25.6
2018-05-29T07:38:50.233Z,25.6
2018-05-29T07:43:50.804Z,25.8
2018-05-29T07:48:50.409Z,25.8
2018-05-29T07:53:50.787Z,26.2
2018-05-29T07:58:50.362Z,26.2
2018-05-29T08:03:50.977Z,26.4
2018-05-29T08:08:50.849Z,26.4
2018-05-29T08:13:50.361Z,27
2018-05-29T08:18:50.950Z,27
2018-05-29T08:23:50.465Z,27.3
2018-05-29T08:28:50.990Z,27.3
2018-05-29T08:33:50.591Z,27.7
2018-05-29T08:38:51.164Z,27.7
2018-05-29T08:43:50.775Z,27.9
2018-05-29T08:48:50.242Z,27.9
2018-05-29T08:53:50.814Z,28.1
2018-05-29T08:58:50.321Z,28.1
2018-05-29T09:03:50.984Z,28.5
2018-05-29T09:08:50.643Z,28.5
2018-05-29T09:13:51.249Z,28.8
2018-05-29T09:18:50.905Z,28.8
2018-05-29T09:23:50.310Z,29.4
2018-05-29T09:28:50.811Z,29.4
2018-05-29T09:33:50.343Z,29.5
2018-05-29T09:38:50.814Z,29.5
2018-05-29T09:43:50.365Z,29.6
2018-05-29T09:48:50.892Z,29.6
2018-05-29T09:53:50.443Z,30.2
2018-05-29T09:58:50.994Z,30.2
2018-05-29T10:03:50.549Z,30.4
2018-05-29T10:08:50.668Z,30.4
2018-05-29T10:13:51.258Z,30.7
2018-05-29T10:18:50.745Z,30.7
2018-05-29T10:23:50.298Z,30.9
2018-05-29T10:28:50.839Z,30.9
2018-05-29T10:33:51.355Z,30.8
2018-05-29T10:38:50.725Z,30.8
2018-05-29T10:43:51.353Z,31.1
2018-05-29T10:48:50.855Z,31.1
2018-05-29T10:53:50.390Z,31.3
2018-05-29T10:58:50.923Z,31.3
2018-05-29T11:03:50.424Z,31.4
2018-05-29T11:08:51.342Z,31.4
2018-05-29T11:13:50.893Z,31.6
2018-05-29T11:18:50.536Z,31.6
2018-05-29T11:23:51.001Z,31.6
2018-05-29T11:28:50.515Z,31.6
2018-05-29T11:33:51.057Z,31.8
2018-05-29T11:38:50.515Z,31.8
2018-05-29T11:43:50.985Z,32.1
2018-05-29T11:48:50.541Z,32.1
2018-05-29T11:53:51.103Z,32
2018-05-29T11:58:50.622Z,32
2018-05-29T12:03:51.195Z,32.3
2018-05-29T12:08:51.284Z,32.3
2018-05-29T12:13:51.052Z,32.7
2018-05-29T12:18:50.628Z,32.7
2018-05-29T12:23:50.951Z,32.8
2018-05-29T12:28:51.309Z,32.8
2018-05-29T12:33:50.787Z,32.4
2018-05-29T12:38:51.171Z,32.4
2018-05-29T12:43:50.559Z,32.4
2018-05-29T12:48:50.908Z,32.4
2018-05-29T12:53:51.203Z,32.4
2018-05-29T12:58:50.663Z,32.4
2018-05-29T13:03:51.200Z,32.8
2018-05-29T13:08:51.361Z,32.8
2018-05-29T13:13:50.744Z,32.7
2018-05-29T13:18:51.373Z,32.7
2018-05-29T13:23:50.603Z,32.6
2018-05-29T13:28:51.022Z,32.6
2018-05-29T13:33:51.444Z,32.6
2018-05-29T13:38:50.805Z,32.6
2018-05-29T13:43:51.107Z,32.8
2018-05-29T13:48:51.458Z,32.8
2018-05-29T13:53:50.800Z,32.7
2018-05-29T13:58:51.128Z,32.7
2018-05-29T14:03:51.586Z,32.5
2018-05-29T14:08:51.095Z,32.5
2018-05-29T14:13:51.454Z,32.2
2018-05-29T14:18:50.889Z,32.2
2018-05-29T14:23:51.293Z,32.3
2018-05-29T14:28:51.670Z,32.3
2018-05-29T14:33:51.002Z,32.3
2018-05-29T14:38:51.387Z,32.3
2018-05-29T14:43:50.801Z,32.1
2018-05-29T14:48:51.260Z,32.1
2018-05-29T14:53:51.607Z,32.2
2018-05-29T14:58:50.991Z,32.2
2018-05-29T15:03:51.479Z,32.2
2018-05-29T15:08:51.618Z,32.2
2018-05-29T15:13:51.116Z,32
2018-05-29T15:18:51.632Z,32
2018-05-29T15:23:50.952Z,31.9
2018-05-29T15:28:51.231Z,31.9
2018-05-29T15:33:51.654Z,31.7
2018-05-29T15:38:51.062Z,31.7
2018-05-29T15:43:51.449Z,31.4
2018-05-29T15:48:50.828Z,31.4
2018-05-29T15:53:51.171Z,31.2
2018-05-29T15:58:51.525Z,31.2
2018-05-29T16:03:51.096Z,31.1
2018-05-29T16:08:51.035Z,31.1
2018-05-29T16:13:51.567Z,31.1
2018-05-29T16:18:50.894Z,31.1
2018-05-29T16:23:51.223Z,30.9
2018-05-29T16:28:51.606Z,30.9
2018-05-29T16:33:50.989Z,30.7
2018-05-29T16:38:51.366Z,30.7
2018-05-29T16:43:51.806Z,30.6
2018-05-29T16:48:51.357Z,30.6
2018-05-29T16:53:51.751Z,30.4
2018-05-29T16:58:51.051Z,30.4
2018-05-29T17:03:51.423Z,30.2
2018-05-29T17:08:51.279Z,30.2
2018-05-29T17:13:51.715Z,29.8
2018-05-29T17:18:51.044Z,29.8
2018-05-29T17:23:51.436Z,29.6
2018-05-29T17:28:51.749Z,29.6
2018-05-29T17:33:51.145Z,29.2
2018-05-29T17:38:51.577Z,29.2
2018-05-29T17:43:50.983Z,28.9
2018-05-29T17:48:51.308Z,28.9
2018-05-29T17:53:51.710Z,28.6
2018-05-29T17:58:51.098Z,28.6
2018-05-29T18:03:51.635Z,28.3
2018-05-29T18:08:51.689Z,28.3
2018-05-29T18:13:51.023Z,28
2018-05-29T18:18:51.367Z,28
2018-05-29T18:23:51.871Z,27.7
2018-05-29T18:28:51.204Z,27.7
2018-05-29T18:33:51.612Z,27.3
2018-05-29T18:38:51.050Z,27.3
2018-05-29T18:43:51.517Z,27.1
2018-05-29T18:48:51.967Z,27.1
2018-05-29T18:53:51.459Z,26.7
2018-05-29T18:58:51.900Z,26.7
2018-05-29T19:03:51.413Z,26.3
2018-05-29T19:08:51.754Z,26.3
2018-05-29T19:13:51.155Z,26
2018-05-29T19:18:51.530Z,26
2018-05-29T19:23:51.958Z,25.6
2018-05-29T19:28:51.295Z,25.6
2018-05-29T19:33:51.748Z,25.2
2018-05-29T19:38:51.142Z,25.2
2018-05-29T19:43:51.633Z,24.8
2018-05-29T19:48:52.093Z,24.8
2018-05-29T19:53:51.392Z,24.5
2018-05-29T19:58:51.814Z,24.5
2018-05-29T20:03:51.226Z,24.2
2018-05-29T20:08:52.019Z,24.2
2018-05-29T20:13:51.430Z,24
2018-05-29T20:18:51.843Z,24
2018-05-29T20:23:51.226Z,23.8
2018-05-29T20:28:51.526Z,23.8
2018-05-29T20:33:51.929Z,23.5
2018-05-29T20:38:51.190Z,23.5
2018-05-29T20:43:51.590Z,23.2
2018-05-29T20:48:52.021Z,23.2
2018-05-29T20:53:51.583Z,22.9
2018-05-29T20:58:51.942Z,22.9
2018-05-29T21:03:51.429Z,22.7
2018-05-29T21:08:51.172Z,22.7
2018-05-29T21:13:51.596Z,22.4
2018-05-29T21:18:51.954Z,22.4
2018-05-29T21:23:51.298Z,22.3
2018-05-29T21:28:51.657Z,22.3
2018-05-29T21:33:51.989Z,22.1
2018-05-29T21:38:51.337Z,22.1
2018-05-29T21:43:51.682Z,21.9
2018-05-29T21:48:52.007Z,21.9
2018-05-29T21:53:51.362Z,21.8
2018-05-29T21:58:51.196Z,21.8
2018-05-29T22:03:51.939Z,21.7
2018-05-29T22:08:51.514Z,21.7
2018-05-29T22:13:51.926Z,21.6
2018-05-29T22:18:51.239Z,21.6
2018-05-29T22:23:51.645Z,21.4
2018-05-29T22:28:51.939Z,21.4
2018-05-29T22:33:51.353Z,21.3
2018-05-29T22:38:51.756Z,21.3
2018-05-29T22:43:52.217Z,21.2
2018-05-29T22:48:51.554Z,21.2
2018-05-29T22:53:51.797Z,21
2018-05-29T22:58:52.221Z,21
2018-05-29T23:03:51.693Z,20.8
2018-05-29T23:08:51.881Z,20.8
2018-05-29T23:13:52.257Z,20.7
2018-05-29T23:18:51.643Z,20.7
2018-05-29T23:23:51.952Z,20.6
2018-05-29T23:28:51.329Z,20.6
2018-05-29T23:33:51.797Z,20.4
2018-05-29T23:38:52.159Z,20.4
2018-05-29T23:43:51.484Z,20.2
2018-05-29T23:48:51.936Z,20.2
2018-05-29T23:53:52.340Z,20.1
2018-05-29T23:58:51.712Z,20.1
